Time;durP1;ratioP1;P1;durP2;ratioP2;P2;SDS_P1;SDS_P2;PMS_P1;PMS_P2;Temp;Humidity;BMP_temperature;BMP_pressure;BME280_temperature;BME280_humidity;BME280_pressure;Samples;Min_cycle;Max_cycle;Signal;HPM_P1;HPM_P2
2023/10/16 00:01:28;;;;;;;6.17;1.70;;;;;;;3.83;100.00;101346.16;7387004;19;20433;-41
2023/10/16 00:04:01;;;;;;;9.00;3.03;;;;;;;3.84;100.00;101349.63;7364895;19;20430;-40
2023/10/16 00:06:32;;;;;;;10.57;3.20;;;;;;;3.83;100.00;101350.38;7386524;19;20728;-38
2023/10/16 00:09:10;;;;;;;4.53;1.00;;;;;;;3.81;100.00;101347.72;7363912;19;20431;-40
2023/10/16 00:11:40;;;;;;;11.57;3.20;;;;;;;3.86;100.00;101348.06;7386390;19;20478;-38
2023/10/16 00:14:18;;;;;;;4.30;1.20;;;;;;;3.88;100.00;101354.19;7365197;19;20530;-41
2023/10/16 00:16:50;;;;;;;5.57;1.40;;;;;;;3.87;100.00;101357.50;7387529;19;20420;-42
2023/10/16 00:19:25;;;;;;;7.13;1.50;;;;;;;3.89;100.00;101363.63;7364411;19;20427;-40
2023/10/16 00:21:57;;;;;;;5.97;1.93;;;;;;;3.91;100.00;101364.66;7386437;19;20411;-41
2023/10/16 00:24:28;;;;;;;5.33;0.90;;;;;;;3.97;100.00;101361.69;7364646;19;20423;-40
2023/10/16 00:27:00;;;;;;;8.47;1.50;;;;;;;3.98;100.00;101359.25;7387112;19;20990;-38
2023/10/16 00:29:35;;;;;;;8.90;1.30;;;;;;;4.00;100.00;101354.28;7364943;19;20438;-38
2023/10/16 00:32:07;;;;;;;8.87;1.67;;;;;;;4.07;100.00;101361.63;7385350;19;20500;-41
2023/10/16 00:34:40;;;;;;;6.47;1.10;;;;;;;4.08;100.00;101357.41;7363818;19;20444;-39
2023/10/16 00:37:10;;;;;;;9.90;1.87;;;;;;;4.17;100.00;101345.34;7385943;19;20487;-38
2023/10/16 00:39:39;;;;;;;14.00;3.00;;;;;;;4.17;100.00;101342.81;7366133;19;20443;-40
2023/10/16 00:42:10;;;;;;;4.50;1.17;;;;;;;4.17;100.00;101333.47;7385899;19;20390;-40
2023/10/16 00:44:42;;;;;;;4.47;1.30;;;;;;;4.18;100.00;101330.16;7365577;19;20890;-39
2023/10/16 00:47:11;;;;;;;4.93;1.17;;;;;;;4.23;100.00;101329.59;7387136;19;20407;-40
2023/10/16 00:49:47;;;;;;;17.00;6.20;;;;;;;4.28;100.00;101326.63;7365516;19;20486;-39
2023/10/16 00:52:18;;;;;;;3.57;1.13;;;;;;;4.26;100.00;101320.50;7386885;19;20386;-38
2023/10/16 00:54:48;;;;;;;6.90;1.90;;;;;;;4.34;100.00;101318.53;7364827;19;20442;-39
2023/10/16 00:57:18;;;;;;;10.60;1.40;;;;;;;4.32;100.00;101317.53;7386055;19;20416;-42
2023/10/16 00:59:48;;;;;;;6.53;1.40;;;;;;;4.33;100.00;101314.22;7367024;19;20487;-45
2023/10/16 01:02:26;;;;;;;16.73;3.43;;;;;;;4.31;100.00;101310.66;7391854;19;20411;-41
2023/10/16 01:05:01;;;;;;;9.13;1.73;;;;;;;4.32;100.00;101312.44;7371977;19;20419;-41
2023/10/16 01:07:33;;;;;;;16.67;3.47;;;;;;;4.26;100.00;101297.50;7392779;19;20948;-40
2023/10/16 01:10:10;;;;;;;5.93;1.07;;;;;;;4.27;100.00;101293.31;7369476;19;20425;-41
2023/10/16 01:12:54;;;;;;;4.17;1.20;;;;;;;4.28;100.00;101284.84;7392018;19;20406;-40
2023/10/16 01:15:25;;;;;;;7.97;0.90;;;;;;;4.31;100.00;101288.53;7366978;19;20462;-40
2023/10/16 01:17:55;;;;;;;12.67;2.77;;;;;;;4.31;100.00;101295.31;7393870;19;20440;-40
2023/10/16 01:20:30;;;;;;;3.40;1.20;;;;;;;4.33;100.00;101293.78;7371341;19;20472;-41
2023/10/16 01:22:59;;;;;;;6.77;2.90;;;;;;;4.41;100.00;101292.66;7392463;19;20793;-45
2023/10/16 01:25:32;;;;;;;8.53;1.30;;;;;;;4.36;100.00;101291.44;7363537;19;20453;-38
2023/10/16 01:28:04;;;;;;;2.70;1.20;;;;;;;4.35;100.00;101296.44;7392313;19;20478;-40
2023/10/16 01:30:34;;;;;;;3.50;0.73;;;;;;;4.34;100.00;101300.66;7367757;19;21063;-41
2023/10/16 01:33:04;;;;;;;4.10;1.00;;;;;;;4.37;100.00;101295.78;7384717;19;20788;-39
2023/10/16 01:35:36;;;;;;;6.73;1.03;;;;;;;4.40;100.00;101311.34;7389606;19;20419;-37
2023/10/16 01:38:14;;;;;;;2.37;0.80;;;;;;;4.46;100.00;101323.69;7368143;19;20532;-41
2023/10/16 01:43:35;;;;;;;8.03;1.70;;;;;;;4.49;100.00;101321.38;7367915;19;20440;-39
2023/10/16 01:46:08;;;;;;;4.37;1.10;;;;;;;4.49;100.00;101312.81;7389644;19;20410;-41
2023/10/16 01:48:40;;;;;;;5.57;2.30;;;;;;;4.50;100.00;101304.38;7368783;19;20423;-46
2023/10/16 01:51:11;;;;;;;3.47;1.17;;;;;;;4.43;100.00;101301.38;7388246;19;20412;-41
2023/10/16 01:53:42;;;;;;;4.97;1.60;;;;;;;4.44;100.00;101298.03;7368782;19;20441;-39
2023/10/16 01:56:17;;;;;;;5.30;1.73;;;;;;;4.41;100.00;101297.78;7388970;19;20403;-40
2023/10/16 01:58:49;;;;;;;8.40;2.50;;;;;;;4.35;100.00;101294.75;7369485;19;20427;-40
2023/10/16 02:01:21;;;;;;;8.33;2.43;;;;;;;4.34;100.00;101295.53;7391423;19;20404;-39
2023/10/16 02:03:52;;;;;;;11.83;4.40;;;;;;;4.34;100.00;101305.75;7367149;19;20426;-45
2023/10/16 02:06:21;;;;;;;4.17;1.30;;;;;;;4.28;100.00;101308.75;7391489;19;20441;-39
2023/10/16 02:08:51;;;;;;;9.00;1.40;;;;;;;4.30;100.00;101290.97;7366891;19;20860;-41
2023/10/16 02:11:23;;;;;;;8.40;2.27;;;;;;;4.29;100.00;101301.97;7389640;19;20409;-42
2023/10/16 02:13:55;;;;;;;5.13;1.37;;;;;;;4.25;100.00;101299.97;7368808;19;20808;-41
2023/10/16 02:16:26;;;;;;;7.23;1.87;;;;;;;4.19;100.00;101306.38;7388762;19;20423;-44
2023/10/16 02:18:56;;;;;;;5.90;1.20;;;;;;;4.20;100.00;101309.81;7367554;19;20774;-45
2023/10/16 02:21:25;;;;;;;4.57;1.37;;;;;;;4.18;100.00;101308.81;7389121;19;20400;-46
2023/10/16 02:24:03;;;;;;;7.07;2.13;;;;;;;4.17;100.00;101313.03;7367855;19;20800;-41
2023/10/16 02:26:45;;;;;;;2.60;1.00;;;;;;;4.18;100.00;101314.84;7388481;19;20413;-45
2023/10/16 02:29:15;;;;;;;8.30;2.03;;;;;;;4.23;100.00;101322.84;7366750;19;20517;-41
2023/10/16 02:31:45;;;;;;;6.23;2.30;;;;;;;4.28;100.00;101318.97;7388733;19;20490;-44
2023/10/16 02:34:15;;;;;;;9.20;1.83;;;;;;;4.24;100.00;101323.72;7366682;19;20495;-45
2023/10/16 02:36:47;;;;;;;7.80;2.40;;;;;;;4.27;100.00;101322.31;7388056;19;20415;-43
2023/10/16 02:39:35;;;;;;;10.97;1.63;;;;;;;4.25;100.00;101325.53;7366113;19;20423;-48
2023/10/16 02:42:12;;;;;;;6.17;2.73;;;;;;;4.28;100.00;101323.19;7388671;19;20403;-40
2023/10/16 02:44:42;;;;;;;10.30;1.87;;;;;;;4.28;100.00;101315.50;7367611;19;20498;-41
2023/10/16 02:47:13;;;;;;;5.67;1.10;;;;;;;4.27;100.00;101323.97;7388494;19;20486;-48
2023/10/16 02:49:47;;;;;;;11.90;3.23;;;;;;;4.31;100.00;101315.75;7367991;19;20441;-41
2023/10/16 02:52:19;;;;;;;9.70;2.27;;;;;;;4.25;100.00;101310.19;7387397;19;20486;-46
2023/10/16 02:54:49;;;;;;;8.00;2.73;;;;;;;4.25;100.00;101310.19;7366275;19;20444;-44
2023/10/16 02:57:21;;;;;;;7.43;2.30;;;;;;;4.28;100.00;101310.41;7388896;19;20815;-43
2023/10/16 02:59:51;;;;;;;5.83;1.80;;;;;;;4.28;100.00;101316.41;7365784;19;20431;-41
2023/10/16 03:02:22;;;;;;;8.77;2.80;;;;;;;4.31;100.00;101314.09;7389631;19;20423;-44
2023/10/16 03:04:56;;;;;;;4.87;2.03;;;;;;;4.29;100.00;101312.19;7366105;19;20553;-44
2023/10/16 03:07:26;;;;;;;10.63;3.93;;;;;;;4.31;100.00;101326.00;7389914;19;20440;-42
2023/10/16 03:09:56;;;;;;;4.53;1.80;;;;;;;4.26;100.00;101327.28;7364032;19;21021;-41
2023/10/16 03:12:28;;;;;;;5.87;2.77;;;;;;;4.27;100.00;101327.41;7387978;19;20423;-43
2023/10/16 03:15:00;;;;;;;12.37;3.30;;;;;;;4.34;100.00;101326.19;7366115;19;20427;-46
2023/10/16 03:17:34;;;;;;;6.63;2.63;;;;;;;4.38;100.00;101324.78;7387566;19;20414;-44
2023/10/16 03:20:19;;;;;;;14.77;6.00;;;;;;;4.43;100.00;101321.81;7365983;19;20442;-44
2023/10/16 03:22:53;;;;;;;4.37;1.90;;;;;;;4.43;100.00;101326.91;7386856;19;20487;-45
2023/10/16 03:25:30;;;;;;;6.03;2.00;;;;;;;4.38;100.00;101328.22;7366599;19;20446;-43
2023/10/16 03:28:05;;;;;;;3.60;1.73;;;;;;;4.33;100.00;101317.63;7390561;19;20420;-49
2023/10/16 03:30:39;;;;;;;10.40;2.50;;;;;;;4.30;100.00;101316.50;7366214;19;21005;-42
2023/10/16 03:33:15;;;;;;;5.77;1.80;;;;;;;4.27;100.00;101316.28;7365064;19;20415;-44
2023/10/16 03:35:49;;;;;;;8.13;1.80;;;;;;;4.24;100.00;101305.81;7386772;19;20812;-43
2023/10/16 03:38:24;;;;;;;8.97;2.30;;;;;;;4.21;100.00;101313.28;7365417;19;20419;-41
2023/10/16 03:40:55;;;;;;;11.20;2.87;;;;;;;4.26;100.00;101311.97;7385476;19;20880;-43
2023/10/16 03:43:27;;;;;;;5.90;2.87;;;;;;;4.26;100.00;101317.94;7363079;19;20433;-44
2023/10/16 03:45:58;;;;;;;8.83;2.80;;;;;;;4.29;100.00;101313.09;7388870;19;20418;-44
2023/10/16 03:48:27;;;;;;;10.23;4.20;;;;;;;4.27;100.00;101309.53;7365150;19;20437;-45
2023/10/16 03:51:00;;;;;;;5.63;2.40;;;;;;;4.27;100.00;101313.75;7386027;19;20432;-47
2023/10/16 03:53:32;;;;;;;12.20;3.03;;;;;;;4.26;100.00;101312.84;7366322;19;20989;-40
2023/10/16 03:56:02;;;;;;;9.90;2.97;;;;;;;4.28;100.00;101308.75;7387288;19;20423;-41
2023/10/16 03:58:35;;;;;;;7.13;2.20;;;;;;;4.28;100.00;101315.50;7366001;19;20439;-41
2023/10/16 04:01:10;;;;;;;9.87;3.50;;;;;;;4.30;100.00;101313.97;7386665;19;20415;-41
2023/10/16 04:03:50;;;;;;;5.93;2.37;;;;;;;4.23;100.00;101302.41;7364702;19;21048;-45
2023/10/16 04:06:21;;;;;;;7.80;2.33;;;;;;;4.27;100.00;101293.31;7386531;19;20416;-41
2023/10/16 04:08:52;;;;;;;6.60;2.90;;;;;;;4.33;100.00;101291.22;7364767;19;20434;-43
2023/10/16 04:11:25;;;;;;;5.07;2.20;;;;;;;4.32;100.00;101297.97;7386700;19;20419;-43
2023/10/16 04:13:57;;;;;;;5.80;1.93;;;;;;;4.30;100.00;101294.41;7365601;19;20443;-41
2023/10/16 04:16:42;;;;;;;6.30;2.87;;;;;;;4.35;100.00;101291.34;7388007;19;20771;-44
2023/10/16 04:19:36;;;;;;;3.90;1.80;;;;;;;4.33;100.00;101293.78;7364680;19;20465;-42
2023/10/16 04:22:16;;;;;;;5.93;2.13;;;;;;;4.41;100.00;101290.13;7387897;19;20407;-42
2023/10/16 04:24:46;;;;;;;33.37;13.47;;;;;;;4.56;100.00;101294.63;7364857;19;20415;-45
2023/10/16 04:32:56;;;;;;;10.10;2.67;;;;;;;4.48;100.00;101299.16;7385747;19;20427;-41
2023/10/16 04:35:51;;;;;;;8.70;2.17;;;;;;;4.48;100.00;101293.13;7370398;19;20468;-43
2023/10/16 04:38:31;;;;;;;9.90;4.13;;;;;;;4.50;100.00;101300.16;7373264;19;20444;-43
2023/10/16 04:44:21;;;;;;;7.73;2.60;;;;;;;4.54;100.00;101293.59;7370578;19;20994;-44
2023/10/16 04:46:57;;;;;;;8.40;3.10;;;;;;;4.68;100.00;101286.97;7391139;19;20407;-42
2023/10/16 04:49:28;;;;;;;7.17;3.03;;;;;;;4.70;100.00;101282.84;7370924;19;20518;-46
2023/10/16 04:52:06;;;;;;;8.90;2.70;;;;;;;4.68;100.00;101286.97;7391803;19;20486;-41
2023/10/16 04:54:58;;;;;;;7.90;2.93;;;;;;;4.72;100.00;101288.97;7370967;19;20864;-41
2023/10/16 04:57:47;;;;;;;8.37;3.33;;;;;;;4.78;100.00;101279.22;7392800;19;20403;-46
2023/10/16 05:03:22;;;;;;;8.37;3.60;;;;;;;5.05;100.00;101279.44;7390936;19;20418;-44
2023/10/16 05:08:59;;;;;;;7.33;3.33;;;;;;;4.90;100.00;101273.19;7369145;19;20816;-39
2023/10/16 05:11:33;;;;;;;8.77;3.83;;;;;;;4.89;100.00;101250.97;7390454;19;20433;-47
2023/10/16 05:14:22;;;;;;;11.67;5.07;;;;;;;4.95;100.00;101244.63;7369690;19;20923;-45
2023/10/16 05:17:06;;;;;;;6.20;3.10;;;;;;;4.95;100.00;101249.75;7390831;19;20407;-41
2023/10/16 05:19:46;;;;;;;16.43;6.10;;;;;;;5.03;100.00;101241.72;7369849;19;20419;-46
2023/10/16 06:16:50;;;;;;;17.43;8.27;;;;;;;5.43;100.00;101256.50;7388148;19;20770;-46
2023/10/16 06:19:21;;;;;;;19.00;6.17;;;;;;;5.37;100.00;101256.91;7368039;19;20427;-40
2023/10/16 06:21:54;;;;;;;11.03;4.53;;;;;;;5.35;100.00;101258.50;7389246;19;20981;-40
2023/10/16 06:24:32;;;;;;;8.00;4.47;;;;;;;5.41;100.00;101251.25;7367246;19;20419;-41
2023/10/16 06:27:08;;;;;;;12.57;4.20;;;;;;;5.38;100.00;101256.13;7390558;19;20437;-43
2023/10/16 06:29:40;;;;;;;8.63;4.50;;;;;;;5.40;100.00;101257.16;7367626;19;20438;-38
2023/10/16 06:32:18;;;;;;;11.87;5.00;;;;;;;5.51;100.00;101260.47;7388709;19;20411;-38
2023/10/16 06:34:49;;;;;;;8.27;4.17;;;;;;;5.46;100.00;101267.81;7367459;19;20429;-41
2023/10/16 06:37:21;;;;;;;11.80;5.20;;;;;;;5.45;100.00;101266.06;7388835;19;20400;-39
2023/10/16 06:39:58;;;;;;;11.70;4.83;;;;;;;5.63;100.00;101263.88;7367129;19;20427;-39
2023/10/16 06:42:29;;;;;;;6.87;3.93;;;;;;;5.60;100.00;101266.25;7388622;19;21267;-43
2023/10/16 06:45:06;;;;;;;14.70;5.43;;;;;;;5.61;100.00;101272.25;7367371;19;20423;-42
2023/10/16 06:47:41;;;;;;;24.03;6.27;;;;;;;5.65;100.00;101266.56;7390561;19;20987;-39
2023/10/16 06:50:39;;;;;;;17.53;5.10;;;;;;;5.67;100.00;101272.66;7367612;19;20454;-43
2023/10/16 06:53:09;;;;;;;13.93;5.60;;;;;;;5.81;100.00;101277.06;7367079;19;20408;-40
2023/10/16 06:55:45;;;;;;;11.50;5.33;;;;;;;5.72;100.00;101278.09;7388225;19;20408;-42
2023/10/16 06:58:15;;;;;;;20.50;6.30;;;;;;;5.72;100.00;101279.00;7365170;19;20446;-39
2023/10/16 07:00:47;;;;;;;17.80;4.80;;;;;;;5.67;100.00;101278.69;7387793;19;20404;-40
2023/10/16 07:03:17;;;;;;;20.07;6.97;;;;;;;5.77;100.00;101279.31;7366915;19;20419;-43
2023/10/16 07:05:48;;;;;;;16.50;7.20;;;;;;;5.85;100.00;101278.16;7387158;19;20911;-46
2023/10/16 07:08:19;;;;;;;15.93;6.03;;;;;;;5.89;100.00;101280.16;7364139;19;20799;-40
2023/10/16 07:10:55;;;;;;;17.53;8.03;;;;;;;5.99;100.00;101281.69;7383918;19;20415;-39
2023/10/16 07:13:32;;;;;;;10.77;4.97;;;;;;;5.95;100.00;101279.72;7364966;19;20472;-43
2023/10/16 07:16:03;;;;;;;12.17;4.80;;;;;;;5.95;100.00;101280.59;7389189;19;21974;-43
2023/10/16 07:18:35;;;;;;;11.27;5.60;;;;;;;6.04;100.00;101277.81;7365403;19;20449;-38
2023/10/16 07:21:17;;;;;;;10.20;4.90;;;;;;;6.02;100.00;101281.94;7387037;19;20976;-40
2023/10/16 07:23:47;;;;;;;9.57;5.53;;;;;;;5.99;100.00;101271.44;7366751;19;20440;-45
2023/10/16 07:26:24;;;;;;;12.97;6.00;;;;;;;6.06;100.00;101268.53;7387559;19;21066;-39
2023/10/16 07:28:58;;;;;;;16.83;6.67;;;;;;;6.03;100.00;101277.69;7366606;19;20542;-43
2023/10/16 07:31:28;;;;;;;14.93;4.70;;;;;;;6.14;100.00;101270.75;7387392;19;20414;-46
2023/10/16 07:33:59;;;;;;;14.70;5.50;;;;;;;6.15;100.00;101270.84;7366435;19;20427;-40
2023/10/16 07:36:30;;;;;;;17.80;6.20;;;;;;;6.10;100.00;101273.91;7386731;19;20420;-45
2023/10/16 07:39:02;;;;;;;9.60;3.90;;;;;;;6.10;100.00;101285.00;7367344;19;20526;-44
2023/10/16 07:41:37;;;;;;;40.97;16.20;;;;;;;6.22;100.00;101284.97;7388901;19;20420;-38
2023/10/16 07:44:08;;;;;;;15.13;4.90;;;;;;;6.15;100.00;101283.66;7365012;19;21015;-45
2023/10/16 07:46:38;;;;;;;13.23;5.57;;;;;;;6.26;100.00;101292.06;7386321;19;20841;-38
2023/10/16 07:49:15;;;;;;;35.53;14.40;;;;;;;6.29;100.00;101300.00;7366446;19;20458;-41
2023/10/16 07:51:48;;;;;;;12.13;4.27;;;;;;;6.33;100.00;101304.53;7387990;19;20420;-41
2023/10/16 07:54:17;;;;;;;11.40;5.00;;;;;;;6.32;100.00;101312.13;7365714;19;20443;-41
2023/10/16 07:56:50;;;;;;;29.33;12.17;;;;;;;6.43;100.00;101315.41;7385988;19;20484;-40
2023/10/16 07:59:21;;;;;;;8.33;3.67;;;;;;;6.37;100.00;101321.03;7363536;19;20431;-38
2023/10/16 08:01:57;;;;;;;20.57;6.23;;;;;;;6.41;100.00;101319.56;7388132;19;20414;-42
2023/10/16 08:04:35;;;;;;;36.67;15.67;;;;;;;6.41;100.00;101322.13;7364990;19;20818;-40
2023/10/16 08:07:16;;;;;;;9.53;4.03;;;;;;;6.51;100.00;101326.19;7386516;19;20404;-40
2023/10/16 08:09:57;;;;;;;8.23;3.87;;;;;;;6.53;100.00;101325.50;7363511;19;20813;-42
2023/10/16 08:12:40;;;;;;;6.00;3.63;;;;;;;6.61;100.00;101326.91;7386727;19;20436;-40
2023/10/16 08:15:21;;;;;;;18.90;6.57;;;;;;;6.70;100.00;101336.88;7363499;19;20443;-41
2023/10/16 08:17:51;;;;;;;10.60;4.83;;;;;;;6.70;100.00;101334.31;7386474;19;20950;-43
2023/10/16 08:20:35;;;;;;;8.33;4.27;;;;;;;6.72;100.00;101334.44;7363761;19;20432;-38
2023/10/16 08:23:14;;;;;;;8.33;3.50;;;;;;;6.59;100.00;101338.75;7362944;19;20463;-40
2023/10/16 08:25:47;;;;;;;25.97;11.00;;;;;;;6.75;100.00;101342.31;7385174;19;20467;-39
2023/10/16 08:28:35;;;;;;;10.07;4.07;;;;;;;6.68;100.00;101345.25;7364128;19;20471;-41
2023/10/16 08:31:22;;;;;;;7.90;2.90;;;;;;;6.66;100.00;101339.16;7385483;19;20411;-40
2023/10/16 08:33:54;;;;;;;18.23;7.13;;;;;;;6.73;100.00;101346.47;7362594;19;20426;-39
2023/10/16 08:36:24;;;;;;;5.33;2.83;;;;;;;6.74;100.00;101356.84;7384086;19;20424;-38
2023/10/16 08:38:55;;;;;;;18.73;8.00;;;;;;;6.89;100.00;101363.75;7364750;19;20427;-40
2023/10/16 08:41:42;;;;;;;10.40;3.13;;;;;;;6.98;100.00;101369.50;7382373;19;21983;-45
2023/10/16 08:44:18;;;;;;;24.17;7.67;;;;;;;7.05;100.00;101375.94;7367730;19;20818;-39
2023/10/16 08:46:53;;;;;;;12.33;5.23;;;;;;;7.19;100.00;101366.56;7394608;19;20418;-43
2023/10/16 08:49:26;;;;;;;5.10;2.20;;;;;;;7.05;100.00;101365.66;7369148;19;20446;-42
2023/10/16 08:52:04;;;;;;;9.37;4.33;;;;;;;7.02;100.00;101365.44;7392310;19;20531;-42
2023/10/16 08:55:00;;;;;;;5.50;2.53;;;;;;;7.14;100.00;101365.38;7369481;19;20423;-36
2023/10/16 08:57:31;;;;;;;13.60;3.93;;;;;;;7.43;100.00;101374.97;7392489;19;20415;-42
2023/10/16 09:00:10;;;;;;;11.77;3.50;;;;;;;7.32;100.00;101378.50;7369502;19;20475;-45
2023/10/16 09:02:41;;;;;;;10.00;4.40;;;;;;;7.54;100.00;101392.75;7392687;19;20421;-41
2023/10/16 09:05:11;;;;;;;6.27;2.40;;;;;;;7.53;100.00;101397.00;7370091;19;20434;-42
2023/10/16 09:07:41;;;;;;;7.17;3.17;;;;;;;7.65;100.00;101419.13;7392990;19;20491;-42
2023/10/16 09:10:12;;;;;;;6.60;1.97;;;;;;;7.56;100.00;101419.41;7367787;19;20439;-43
2023/10/16 09:12:54;;;;;;;7.17;3.17;;;;;;;7.56;100.00;101442.53;7391749;19;20408;-48
2023/10/16 09:15:27;;;;;;;8.20;3.80;;;;;;;7.64;100.00;101453.31;7369818;19;20431;-45
2023/10/16 09:17:56;;;;;;;3.60;1.90;;;;;;;7.68;100.00;101466.44;7383729;19;20477;-37
2023/10/16 09:20:33;;;;;;;6.67;2.67;;;;;;;7.57;100.00;101469.97;7367883;19;21122;-37
2023/10/16 09:23:05;;;;;;;11.20;2.20;;;;;;;7.61;100.00;101468.50;7395850;19;20403;-37
2023/10/16 09:25:35;;;;;;;6.83;2.20;;;;;;;7.64;100.00;101492.72;7376359;19;20442;-37
2023/10/16 09:28:09;;;;;;;5.57;2.07;;;;;;;7.50;100.00;101514.94;7373756;19;20453;-37
2023/10/16 09:30:48;;;;;;;2.37;1.37;;;;;;;7.51;100.00;101547.53;7395863;19;20946;-37
2023/10/16 09:33:39;;;;;;;4.93;2.40;;;;;;;7.55;100.00;101617.97;7374016;19;20395;-37
2023/10/16 09:36:17;;;;;;;11.20;2.97;;;;;;;7.78;100.00;101718.78;7397841;19;20784;-39
2023/10/16 09:38:51;;;;;;;5.20;2.10;;;;;;;7.81;100.00;101819.22;7374022;19;20395;-38
2023/10/16 09:44:22;;;;;;;5.30;2.47;;;;;;;7.70;100.00;101891.28;7369216;19;21105;-38
2023/10/16 09:46:57;;;;;;;6.73;2.50;;;;;;;7.63;100.00;101925.03;7387949;19;20431;-38
2023/10/16 09:49:24;;;;;;;11.30;1.77;;;;;;;7.50;100.00;101958.31;7359041;19;20453;-37
2023/10/16 09:52:04;;;;;;;6.10;1.70;;;;;;;7.47;100.00;101984.66;7389639;19;20399;-38
2023/10/16 09:54:36;;;;;;;11.70;2.50;;;;;;;7.47;100.00;101991.44;7365882;19;20423;-37
2023/10/16 09:57:10;;;;;;;8.10;3.07;;;;;;;7.63;100.00;102007.22;7389973;19;20506;-38
2023/10/16 09:59:41;;;;;;;5.40;1.30;;;;;;;7.66;100.00;102045.09;7365158;19;20523;-38
2023/10/16 10:02:19;;;;;;;4.90;1.60;;;;;;;7.75;100.00;102070.56;7387080;19;20485;-38
2023/10/16 10:04:59;;;;;;;10.83;2.50;;;;;;;7.88;100.00;102083.56;7365412;19;20415;-38
2023/10/16 10:07:47;;;;;;;10.33;2.13;;;;;;;7.99;100.00;102091.16;7388618;19;20982;-38
2023/10/16 10:13:08;;;;;;;7.13;1.67;;;;;;;7.96;100.00;102113.28;7386830;19;20812;-38
2023/10/16 10:15:41;;;;;;;77.47;30.40;;;;;;;7.96;100.00;102097.84;7361054;19;20448;-38
2023/10/16 10:21:02;;;;;;;4.83;1.60;;;;;;;7.91;100.00;102113.72;7387856;19;20412;-37
2023/10/16 10:23:36;;;;;;;9.97;2.10;;;;;;;7.68;100.00;102124.06;7367426;19;20444;-38
2023/10/16 10:26:07;;;;;;;6.00;1.20;;;;;;;7.79;100.00;102132.59;7387349;19;20407;-38
2023/10/16 10:28:40;;;;;;;11.60;5.27;;;;;;;7.86;100.00;102151.03;7389561;19;20415;-38
2023/10/16 10:31:14;;;;;;;6.00;1.70;;;;;;;7.88;100.00;102177.72;7388653;19;20415;-38
2023/10/16 10:33:57;;;;;;;4.43;1.67;;;;;;;7.78;100.00;102188.97;7386967;19;20407;-38
2023/10/16 10:36:32;;;;;;;4.50;1.67;;;;;;;7.81;100.00;102213.25;7365671;19;20405;-38
2023/10/16 10:39:38;;;;;;;4.93;1.40;;;;;;;7.94;100.00;102230.50;7386653;19;20947;-38
2023/10/16 10:42:16;;;;;;;25.00;10.60;;;;;;;7.93;100.00;102236.44;7365320;19;20425;-37
2023/10/16 10:45:17;;;;;;;4.30;1.47;;;;;;;8.10;100.00;102239.38;7385553;19;20387;-38
2023/10/16 10:47:46;;;;;;;10.17;2.20;;;;;;;8.20;100.00;102244.44;7360025;19;20435;-38
2023/10/16 10:50:21;;;;;;;11.03;4.80;;;;;;;8.19;100.00;102247.78;7386833;19;20399;-38
2023/10/16 10:52:51;;;;;;;15.27;7.47;;;;;;;8.16;100.00;102234.69;7380695;19;20415;-38
2023/10/16 10:55:25;;;;;;;6.87;1.73;;;;;;;8.32;100.00;102217.84;7382543;19;20503;-38
2023/10/16 10:57:58;;;;;;;8.60;1.57;;;;;;;8.39;100.00;102207.22;7386947;19;20843;-38
2023/10/16 11:03:22;;;;;;;3.80;1.10;;;;;;;8.90;100.00;102174.91;7387592;19;21019;-38
2023/10/16 11:05:55;;;;;;;6.97;1.80;;;;;;;9.05;100.00;102154.53;7365980;19;21085;-38
2023/10/16 11:08:34;;;;;;;6.20;1.87;;;;;;;9.13;100.00;102146.44;7385576;19;20427;-38
2023/10/16 11:11:05;;;;;;;22.17;7.20;;;;;;;9.12;100.00;102117.22;7365862;19;20694;-39
2023/10/16 11:13:37;;;;;;;6.57;2.47;;;;;;;8.91;100.00;102080.56;7384653;19;20483;-39
2023/10/16 11:16:07;;;;;;;15.37;5.83;;;;;;;9.17;100.00;102064.34;7363159;19;20430;-38
2023/10/16 11:18:37;;;;;;;35.37;15.30;;;;;;;9.04;100.00;102056.56;7385480;19;20437;-38
2023/10/16 11:21:10;;;;;;;86.90;36.10;;;;;;;8.98;100.00;102012.38;7364392;19;20514;-39
2023/10/16 11:23:42;;;;;;;12.70;4.50;;;;;;;8.89;100.00;101980.09;7385247;19;20486;-39
2023/10/16 11:26:16;;;;;;;59.67;24.57;;;;;;;8.73;100.00;101938.66;7364744;19;20415;-38
2023/10/16 11:28:48;;;;;;;17.33;7.20;;;;;;;8.83;100.00;101906.72;7386302;19;20487;-38
2023/10/16 11:31:21;;;;;;;55.17;24.83;;;;;;;8.95;100.00;101858.63;7364860;19;20430;-38
2023/10/16 11:34:06;;;;;;;4.97;1.40;;;;;;;9.13;100.00;101784.25;7387730;19;21043;-38
2023/10/16 11:36:39;;;;;;;22.73;9.00;;;;;;;9.35;100.00;101669.75;7364530;19;20454;-38
2023/10/16 11:39:19;;;;;;;9.03;1.37;;;;;;;9.53;100.00;101590.09;7386815;19;20939;-38
2023/10/16 11:41:51;;;;;;;7.20;1.47;;;;;;;9.59;100.00;101532.91;7363359;19;20435;-38
2023/10/16 11:44:25;;;;;;;14.23;5.17;;;;;;;9.80;100.00;101502.31;7383445;19;20939;-38
2023/10/16 11:46:55;;;;;;;25.47;11.13;;;;;;;9.82;100.00;101474.06;7362188;19;20455;-38
2023/10/16 11:49:29;;;;;;;29.43;12.67;;;;;;;9.86;100.00;101457.97;7386444;19;20491;-38
2023/10/16 11:52:19;;;;;;;17.63;6.50;;;;;;;9.99;100.00;101464.69;7362856;19;20502;-39
2023/10/16 11:54:50;;;;;;;8.47;3.10;;;;;;;10.04;100.00;101465.81;7385519;19;20793;-39
2023/10/16 11:57:20;;;;;;;2.97;1.07;;;;;;;10.03;100.00;101469.22;7361709;19;20530;-39
2023/10/16 11:59:51;;;;;;;15.47;5.80;;;;;;;9.90;100.00;101480.50;7386960;19;20420;-38
2023/10/16 12:02:22;;;;;;;5.70;1.20;;;;;;;10.05;100.00;101485.63;7362900;19;20449;-39
2023/10/16 12:04:54;;;;;;;6.60;0.97;;;;;;;10.07;100.00;101484.06;7388177;19;20503;-41
2023/10/16 12:07:28;;;;;;;11.23;3.70;;;;;;;10.21;100.00;101501.97;7363249;19;20458;-39
2023/10/16 12:10:01;;;;;;;9.90;4.07;;;;;;;10.45;100.00;101488.69;7363248;19;22630;-38
2023/10/16 12:12:32;;;;;;;13.77;5.00;;;;;;;10.13;100.00;101492.13;7385354;19;20420;-38
2023/10/16 12:15:02;;;;;;;7.60;1.83;;;;;;;10.47;100.00;101489.66;7363836;19;21646;-38
2023/10/16 12:17:32;;;;;;;3.10;0.60;;;;;;;10.74;100.00;101497.06;7384157;19;20463;-39
2023/10/16 12:20:08;;;;;;;12.43;5.00;;;;;;;10.71;100.00;101508.13;7362152;19;20763;-39
2023/10/16 12:22:41;;;;;;;9.33;3.53;;;;;;;10.64;100.00;101501.75;7383598;19;20407;-39
2023/10/16 12:25:11;;;;;;;10.10;2.37;;;;;;;10.63;100.00;101500.00;7356862;19;20424;-39
2023/10/16 12:27:41;;;;;;;9.40;4.10;;;;;;;11.32;100.00;101488.88;7383317;19;20443;-39
2023/10/16 12:30:13;;;;;;;5.90;0.90;;;;;;;11.67;100.00;101500.88;7362055;19;20411;-39
2023/10/16 12:32:43;;;;;;;10.73;4.00;;;;;;;11.45;100.00;101499.81;7381456;19;20982;-38
2023/10/16 12:35:17;;;;;;;3.53;1.00;;;;;;;10.91;100.00;101516.94;7362875;19;20434;-38
2023/10/16 12:37:55;;;;;;;3.10;1.10;;;;;;;10.75;100.00;101522.06;7380416;19;20785;-39
2023/10/16 12:40:34;;;;;;;4.40;1.00;;;;;;;10.37;100.00;101524.34;7361671;19;20418;-39
2023/10/16 12:43:05;;;;;;;4.70;0.90;;;;;;;10.40;100.00;101534.81;7382658;19;20426;-39
2023/10/16 12:45:39;;;;;;;7.03;1.13;;;;;;;10.45;100.00;101535.13;7362590;19;20955;-39
2023/10/16 12:48:09;;;;;;;6.00;1.70;;;;;;;10.48;100.00;101514.63;7384139;19;20505;-39
2023/10/16 12:50:39;;;;;;;8.20;1.30;;;;;;;10.23;100.00;101531.31;7363069;19;20947;-38
2023/10/16 12:53:14;;;;;;;4.53;0.80;;;;;;;10.05;100.00;101538.91;7382267;19;20404;-38
2023/10/16 12:55:49;;;;;;;7.57;2.20;;;;;;;10.06;100.00;101546.72;7360827;19;20429;-38
2023/10/16 12:58:19;;;;;;;7.20;2.57;;;;;;;10.05;100.00;101538.91;7390396;19;20444;-38
2023/10/16 13:00:50;;;;;;;4.10;1.23;;;;;;;9.99;100.00;101534.28;7369850;19;20483;-39
2023/10/16 13:03:22;;;;;;;4.87;1.70;;;;;;;10.06;100.00;101531.25;7388910;19;21518;-38
2023/10/16 13:05:52;;;;;;;6.10;1.17;;;;;;;9.90;100.00;101526.91;7371090;19;21112;-39
2023/10/16 13:08:26;;;;;;;6.27;1.87;;;;;;;9.91;100.00;101540.69;7390356;19;20499;-42
2023/10/16 13:10:55;;;;;;;6.40;1.10;;;;;;;9.94;100.00;101551.22;7371328;19;20447;-38
2023/10/16 13:13:25;;;;;;;3.50;0.87;;;;;;;10.02;100.00;101549.94;7389742;19;20852;-39
2023/10/16 13:15:57;;;;;;;3.30;0.70;;;;;;;9.89;100.00;101556.06;7368116;19;20514;-38
2023/10/16 13:18:30;;;;;;;7.97;1.30;;;;;;;9.89;100.00;101545.75;7390073;19;21089;-39